sensor_id;sensor_type;location;lat;lon;timestamp;temperature;humidity
3334;DHT22;1679;50.392;8.008;2024-01-06T00:01:49;6.30;99.90
3334;DHT22;1679;50.392;8.008;2024-01-06T00:04:15;6.30;99.90
3334;DHT22;1679;50.392;8.008;2024-01-06T00:06:40;6.30;99.90
3334;DHT22;1679;50.392;8.008;2024-01-06T00:09:06;6.30;99.90
3334;DHT22;1679;50.392;8.008;2024-01-06T00:11:32;6.30;99.90
3334;DHT22;1679;50.392;8.008;2024-01-06T00:13:58;6.30;99.90
3334;DHT22;1679;50.392;8.008;2024-01-06T00:16:23;6.30;99.90
3334;DHT22;1679;50.392;8.008;2024-01-06T00:18:49;6.30;99.90
3334;DHT22;1679;50.392;8.008;2024-01-06T00:21:14;6.30;99.90
3334;DHT22;1679;50.392;8.008;2024-01-06T00:23:42;6.30;99.90
3334;DHT22;1679;50.392;8.008;2024-01-06T00:26:08;6.30;99.90
3334;DHT22;1679;50.392;8.008;2024-01-06T00:28:36;6.30;99.90
3334;DHT22;1679;50.392;8.008;2024-01-06T00:31:01;6.30;99.90
3334;DHT22;1679;50.392;8.008;2024-01-06T00:33:27;6.30;99.90
3334;DHT22;1679;50.392;8.008;2024-01-06T00:35:52;6.30;99.90
3334;DHT22;1679;50.392;8.008;2024-01-06T00:38:21;6.30;99.90
3334;DHT22;1679;50.392;8.008;2024-01-06T00:40:47;6.20;99.90
3334;DHT22;1679;50.392;8.008;2024-01-06T00:43:12;6.20;99.90
3334;DHT22;1679;50.392;8.008;2024-01-06T00:45:38;6.20;99.90
3334;DHT22;1679;50.392;8.008;2024-01-06T00:48:04;6.20;99.90
3334;DHT22;1679;50.392;8.008;2024-01-06T00:50:30;6.30;99.90
3334;DHT22;1679;50.392;8.008;2024-01-06T00:52:56;6.30;99.90
3334;DHT22;1679;50.392;8.008;2024-01-06T00:55:22;6.30;99.90
3334;DHT22;1679;50.392;8.008;2024-01-06T00:57:50;6.30;99.90
3334;DHT22;1679;50.392;8.008;2024-01-06T01:00:15;6.20;99.90
3334;DHT22;1679;50.392;8.008;2024-01-06T01:02:41;6.30;99.90
3334;DHT22;1679;50.392;8.008;2024-01-06T01:05:07;6.30;99.90
3334;DHT22;1679;50.392;8.008;2024-01-06T01:07:33;6.30;99.90
3334;DHT22;1679;50.392;8.008;2024-01-06T01:10:00;6.30;99.90
3334;DHT22;1679;50.392;8.008;2024-01-06T01:12:27;6.30;99.90
3334;DHT22;1679;50.392;8.008;2024-01-06T01:14:53;6.30;99.90
3334;DHT22;1679;50.392;8.008;2024-01-06T01:17:19;6.30;99.90
3334;DHT22;1679;50.392;8.008;2024-01-06T01:19:46;6.30;99.90
3334;DHT22;1679;50.392;8.008;2024-01-06T01:22:12;6.20;99.90
3334;DHT22;1679;50.392;8.008;2024-01-06T01:24:37;6.20;99.90
3334;DHT22;1679;50.392;8.008;2024-01-06T01:27:03;6.20;99.90
3334;DHT22;1679;50.392;8.008;2024-01-06T01:29:29;6.20;99.90
3334;DHT22;1679;50.392;8.008;2024-01-06T01:31:54;6.20;99.90
3334;DHT22;1679;50.392;8.008;2024-01-06T01:34:20;6.20;99.90
3334;DHT22;1679;50.392;8.008;2024-01-06T01:36:46;6.20;99.90
3334;DHT22;1679;50.392;8.008;2024-01-06T01:39:12;6.20;99.90
3334;DHT22;1679;50.392;8.008;2024-01-06T01:41:37;6.20;99.90
3334;DHT22;1679;50.392;8.008;2024-01-06T01:44:04;6.20;99.90
3334;DHT22;1679;50.392;8.008;2024-01-06T01:46:30;6.20;99.90
3334;DHT22;1679;50.392;8.008;2024-01-06T01:48:57;6.10;99.90
3334;DHT22;1679;50.392;8.008;2024-01-06T01:51:24;6.10;99.90
3334;DHT22;1679;50.392;8.008;2024-01-06T01:53:51;6.10;99.90
3334;DHT22;1679;50.392;8.008;2024-01-06T01:56:17;6.20;99.90
3334;DHT22;1679;50.392;8.008;2024-01-06T01:58:44;6.20;99.90
3334;DHT22;1679;50.392;8.008;2024-01-06T02:01:09;6.20;99.90
3334;DHT22;1679;50.392;8.008;2024-01-06T02:03:35;6.20;99.90
3334;DHT22;1679;50.392;8.008;2024-01-06T02:06:01;6.20;99.90
3334;DHT22;1679;50.392;8.008;2024-01-06T02:08:27;6.20;99.90
3334;DHT22;1679;50.392;8.008;2024-01-06T02:10:54;6.20;99.90
3334;DHT22;1679;50.392;8.008;2024-01-06T02:13:22;6.20;99.90
3334;DHT22;1679;50.392;8.008;2024-01-06T02:15:49;6.20;99.90
3334;DHT22;1679;50.392;8.008;2024-01-06T02:18:15;6.20;99.90
3334;DHT22;1679;50.392;8.008;2024-01-06T02:20:43;6.20;99.90
3334;DHT22;1679;50.392;8.008;2024-01-06T02:23:09;6.20;99.90
3334;DHT22;1679;50.392;8.008;2024-01-06T02:25:35;6.20;99.90
3334;DHT22;1679;50.392;8.008;2024-01-06T02:28:01;6.20;99.90
3334;DHT22;1679;50.392;8.008;2024-01-06T02:30:27;6.20;99.90
3334;DHT22;1679;50.392;8.008;2024-01-06T02:32:54;6.20;99.90
3334;DHT22;1679;50.392;8.008;2024-01-06T02:35:20;6.10;99.90
3334;DHT22;1679;50.392;8.008;2024-01-06T02:37:46;6.10;99.90
3334;DHT22;1679;50.392;8.008;2024-01-06T02:40:13;6.10;99.90
3334;DHT22;1679;50.392;8.008;2024-01-06T02:42:38;6.20;99.90
3334;DHT22;1679;50.392;8.008;2024-01-06T02:45:04;6.20;99.90
3334;DHT22;1679;50.392;8.008;2024-01-06T02:47:30;6.20;99.90
3334;DHT22;1679;50.392;8.008;2024-01-06T02:49:56;6.30;99.90
3334;DHT22;1679;50.392;8.008;2024-01-06T02:52:23;6.30;99.90
3334;DHT22;1679;50.392;8.008;2024-01-06T02:54:49;6.30;99.90
3334;DHT22;1679;50.392;8.008;2024-01-06T02:57:14;6.30;99.90
3334;DHT22;1679;50.392;8.008;2024-01-06T02:59:41;6.30;99.90
3334;DHT22;1679;50.392;8.008;2024-01-06T03:02:07;6.30;99.90
3334;DHT22;1679;50.392;8.008;2024-01-06T03:04:33;6.20;99.90
3334;DHT22;1679;50.392;8.008;2024-01-06T03:06:58;6.20;99.90
3334;DHT22;1679;50.392;8.008;2024-01-06T03:09:24;6.20;99.90
3334;DHT22;1679;50.392;8.008;2024-01-06T03:11:49;6.20;99.90
3334;DHT22;1679;50.392;8.008;2024-01-06T03:14:15;6.20;99.90
3334;DHT22;1679;50.392;8.008;2024-01-06T03:16:40;6.20;99.90
3334;DHT22;1679;50.392;8.008;2024-01-06T03:19:06;6.20;99.90
3334;DHT22;1679;50.392;8.008;2024-01-06T03:21:31;6.20;99.90
3334;DHT22;1679;50.392;8.008;2024-01-06T03:23:57;6.10;99.90
3334;DHT22;1679;50.392;8.008;2024-01-06T03:26:22;6.10;99.90
3334;DHT22;1679;50.392;8.008;2024-01-06T03:28:49;6.10;99.90
3334;DHT22;1679;50.392;8.008;2024-01-06T03:31:15;6.10;99.90
3334;DHT22;1679;50.392;8.008;2024-01-06T03:33:41;6.10;99.90
3334;DHT22;1679;50.392;8.008;2024-01-06T03:36:07;6.10;99.90
3334;DHT22;1679;50.392;8.008;2024-01-06T03:38:34;6.10;99.90
3334;DHT22;1679;50.392;8.008;2024-01-06T03:40:59;6.10;99.90
3334;DHT22;1679;50.392;8.008;2024-01-06T03:43:25;6.10;99.90
3334;DHT22;1679;50.392;8.008;2024-01-06T03:45:51;6.10;99.90
3334;DHT22;1679;50.392;8.008;2024-01-06T03:48:16;6.10;99.90
3334;DHT22;1679;50.392;8.008;2024-01-06T03:50:42;6.10;99.90
3334;DHT22;1679;50.392;8.008;2024-01-06T03:53:07;6.10;99.90
3334;DHT22;1679;50.392;8.008;2024-01-06T03:55:33;6.10;99.90
3334;DHT22;1679;50.392;8.008;2024-01-06T03:57:59;6.10;99.90
3334;DHT22;1679;50.392;8.008;2024-01-06T04:00:26;6.10;99.90
3334;DHT22;1679;50.392;8.008;2024-01-06T04:02:52;6.10;99.90
3334;DHT22;1679;50.392;8.008;2024-01-06T04:05:17;6.10;99.90
3334;DHT22;1679;50.392;8.008;2024-01-06T04:07:44;6.10;99.90
3334;DHT22;1679;50.392;8.008;2024-01-06T04:10:11;6.10;99.90
3334;DHT22;1679;50.392;8.008;2024-01-06T04:12:36;6.10;99.90
3334;DHT22;1679;50.392;8.008;2024-01-06T04:15:02;6.10;99.90
3334;DHT22;1679;50.392;8.008;2024-01-06T04:17:29;6.10;99.90
3334;DHT22;1679;50.392;8.008;2024-01-06T04:19:54;6.10;99.90
3334;DHT22;1679;50.392;8.008;2024-01-06T04:22:20;6.10;99.90
3334;DHT22;1679;50.392;8.008;2024-01-06T04:24:46;6.10;99.90
3334;DHT22;1679;50.392;8.008;2024-01-06T04:27:11;6.10;99.90
3334;DHT22;1679;50.392;8.008;2024-01-06T04:29:39;6.00;99.90
3334;DHT22;1679;50.392;8.008;2024-01-06T04:32:07;6.00;99.90
3334;DHT22;1679;50.392;8.008;2024-01-06T04:34:33;6.00;99.90
3334;DHT22;1679;50.392;8.008;2024-01-06T04:36:59;6.00;99.90
3334;DHT22;1679;50.392;8.008;2024-01-06T04:39:25;6.00;99.90
3334;DHT22;1679;50.392;8.008;2024-01-06T04:41:52;6.00;99.90
3334;DHT22;1679;50.392;8.008;2024-01-06T04:44:20;6.00;99.90
3334;DHT22;1679;50.392;8.008;2024-01-06T04:46:47;6.00;99.90
3334;DHT22;1679;50.392;8.008;2024-01-06T04:49:13;5.90;99.90
3334;DHT22;1679;50.392;8.008;2024-01-06T04:51:38;5.90;99.90
3334;DHT22;1679;50.392;8.008;2024-01-06T04:54:04;5.90;99.90
3334;DHT22;1679;50.392;8.008;2024-01-06T04:56:32;5.80;99.90
3334;DHT22;1679;50.392;8.008;2024-01-06T04:58:57;5.80;99.90
3334;DHT22;1679;50.392;8.008;2024-01-06T05:01:23;5.80;99.90
3334;DHT22;1679;50.392;8.008;2024-01-06T05:03:49;5.70;99.90
3334;DHT22;1679;50.392;8.008;2024-01-06T05:06:15;5.70;99.90
3334;DHT22;1679;50.392;8.008;2024-01-06T05:08:40;5.70;99.90
3334;DHT22;1679;50.392;8.008;2024-01-06T05:11:12;5.70;99.90
3334;DHT22;1679;50.392;8.008;2024-01-06T05:13:37;5.70;99.90
3334;DHT22;1679;50.392;8.008;2024-01-06T05:16:03;5.70;99.90
3334;DHT22;1679;50.392;8.008;2024-01-06T05:18:29;5.70;99.90
3334;DHT22;1679;50.392;8.008;2024-01-06T05:20:56;5.70;99.90
3334;DHT22;1679;50.392;8.008;2024-01-06T05:23:22;5.70;99.90
3334;DHT22;1679;50.392;8.008;2024-01-06T05:25:47;5.70;99.90
3334;DHT22;1679;50.392;8.008;2024-01-06T05:28:14;5.70;99.90
3334;DHT22;1679;50.392;8.008;2024-01-06T05:30:40;5.70;99.90
3334;DHT22;1679;50.392;8.008;2024-01-06T05:33:09;5.70;99.90
3334;DHT22;1679;50.392;8.008;2024-01-06T05:35:36;5.70;99.90
3334;DHT22;1679;50.392;8.008;2024-01-06T05:38:02;5.80;99.90
3334;DHT22;1679;50.392;8.008;2024-01-06T05:40:28;5.70;99.90
3334;DHT22;1679;50.392;8.008;2024-01-06T05:42:55;5.70;99.90
3334;DHT22;1679;50.392;8.008;2024-01-06T05:45:22;5.70;99.90
3334;DHT22;1679;50.392;8.008;2024-01-06T05:47:48;5.80;99.90
3334;DHT22;1679;50.392;8.008;2024-01-06T05:50:17;5.80;99.90
3334;DHT22;1679;50.392;8.008;2024-01-06T05:52:42;5.80;99.90
3334;DHT22;1679;50.392;8.008;2024-01-06T05:55:08;5.70;99.90
3334;DHT22;1679;50.392;8.008;2024-01-06T05:57:34;5.70;99.90
3334;DHT22;1679;50.392;8.008;2024-01-06T06:00:00;5.70;99.90
3334;DHT22;1679;50.392;8.008;2024-01-06T06:02:26;5.70;99.90
3334;DHT22;1679;50.392;8.008;2024-01-06T06:04:51;5.70;99.90
3334;DHT22;1679;50.392;8.008;2024-01-06T06:07:18;5.70;99.90
3334;DHT22;1679;50.392;8.008;2024-01-06T06:09:43;5.70;99.90
3334;DHT22;1679;50.392;8.008;2024-01-06T06:12:14;5.80;99.90
3334;DHT22;1679;50.392;8.008;2024-01-06T06:14:39;5.80;99.90
3334;DHT22;1679;50.392;8.008;2024-01-06T06:17:06;5.70;99.90
3334;DHT22;1679;50.392;8.008;2024-01-06T06:19:32;5.80;99.90
3334;DHT22;1679;50.392;8.008;2024-01-06T06:21:59;5.70;99.90
3334;DHT22;1679;50.392;8.008;2024-01-06T06:24:26;5.70;99.90
3334;DHT22;1679;50.392;8.008;2024-01-06T06:26:52;5.70;99.90
3334;DHT22;1679;50.392;8.008;2024-01-06T06:29:17;5.70;99.90
3334;DHT22;1679;50.392;8.008;2024-01-06T06:31:43;5.70;99.90
3334;DHT22;1679;50.392;8.008;2024-01-06T06:34:10;5.70;99.90
3334;DHT22;1679;50.392;8.008;2024-01-06T06:36:36;5.70;99.90
3334;DHT22;1679;50.392;8.008;2024-01-06T06:39:02;5.70;99.90
3334;DHT22;1679;50.392;8.008;2024-01-06T06:41:29;5.70;99.90
3334;DHT22;1679;50.392;8.008;2024-01-06T06:43:55;5.70;99.90
3334;DHT22;1679;50.392;8.008;2024-01-06T06:46:21;5.70;99.90
3334;DHT22;1679;50.392;8.008;2024-01-06T06:48:46;5.60;99.90
3334;DHT22;1679;50.392;8.008;2024-01-06T06:51:12;5.70;99.90
3334;DHT22;1679;50.392;8.008;2024-01-06T06:53:38;5.70;99.90
3334;DHT22;1679;50.392;8.008;2024-01-06T06:56:03;5.70;99.90
3334;DHT22;1679;50.392;8.008;2024-01-06T06:58:29;5.70;99.90
3334;DHT22;1679;50.392;8.008;2024-01-06T07:00:54;5.70;99.90
3334;DHT22;1679;50.392;8.008;2024-01-06T07:03:20;5.70;99.90
3334;DHT22;1679;50.392;8.008;2024-01-06T07:05:47;5.70;99.90
3334;DHT22;1679;50.392;8.008;2024-01-06T07:08:13;5.70;99.90
3334;DHT22;1679;50.392;8.008;2024-01-06T07:10:40;5.70;99.90
3334;DHT22;1679;50.392;8.008;2024-01-06T07:13:06;5.70;99.90
3334;DHT22;1679;50.392;8.008;2024-01-06T07:15:31;5.70;99.90
3334;DHT22;1679;50.392;8.008;2024-01-06T07:17:57;5.80;99.90
3334;DHT22;1679;50.392;8.008;2024-01-06T07:20:23;5.80;99.90
3334;DHT22;1679;50.392;8.008;2024-01-06T07:22:48;5.80;99.90
3334;DHT22;1679;50.392;8.008;2024-01-06T07:25:15;5.80;99.90
3334;DHT22;1679;50.392;8.008;2024-01-06T07:27:40;5.80;99.90
3334;DHT22;1679;50.392;8.008;2024-01-06T07:30:07;5.80;99.90
3334;DHT22;1679;50.392;8.008;2024-01-06T07:32:35;5.90;99.90
3334;DHT22;1679;50.392;8.008;2024-01-06T07:35:01;5.90;99.90
3334;DHT22;1679;50.392;8.008;2024-01-06T07:37:27;5.90;99.90
3334;DHT22;1679;50.392;8.008;2024-01-06T07:39:53;5.80;99.90
3334;DHT22;1679;50.392;8.008;2024-01-06T07:42:20;5.90;99.90
3334;DHT22;1679;50.392;8.008;2024-01-06T07:44:46;5.90;99.90
3334;DHT22;1679;50.392;8.008;2024-01-06T07:47:12;6.00;99.90
3334;DHT22;1679;50.392;8.008;2024-01-06T07:49:37;5.90;99.90
3334;DHT22;1679;50.392;8.008;2024-01-06T07:52:03;5.90;99.90
3334;DHT22;1679;50.392;8.008;2024-01-06T07:54:29;5.90;99.90
3334;DHT22;1679;50.392;8.008;2024-01-06T07:56:55;5.90;99.90
3334;DHT22;1679;50.392;8.008;2024-01-06T07:59:22;5.90;99.90
3334;DHT22;1679;50.392;8.008;2024-01-06T08:01:49;5.90;99.90
3334;DHT22;1679;50.392;8.008;2024-01-06T08:04:15;5.90;99.90
3334;DHT22;1679;50.392;8.008;2024-01-06T08:06:41;5.90;99.90
3334;DHT22;1679;50.392;8.008;2024-01-06T08:09:06;5.90;99.90
3334;DHT22;1679;50.392;8.008;2024-01-06T08:11:35;5.90;99.90
3334;DHT22;1679;50.392;8.008;2024-01-06T08:14:01;6.00;99.90
3334;DHT22;1679;50.392;8.008;2024-01-06T08:16:28;6.00;99.90
3334;DHT22;1679;50.392;8.008;2024-01-06T08:18:53;6.10;99.90
3334;DHT22;1679;50.392;8.008;2024-01-06T08:21:19;6.10;99.90
3334;DHT22;1679;50.392;8.008;2024-01-06T08:23:44;6.00;99.90
3334;DHT22;1679;50.392;8.008;2024-01-06T08:26:11;6.00;99.90
3334;DHT22;1679;50.392;8.008;2024-01-06T08:28:37;6.00;99.90
3334;DHT22;1679;50.392;8.008;2024-01-06T08:31:03;6.00;99.90
3334;DHT22;1679;50.392;8.008;2024-01-06T08:33:29;6.00;99.90
3334;DHT22;1679;50.392;8.008;2024-01-06T08:35:55;6.00;99.90
3334;DHT22;1679;50.392;8.008;2024-01-06T08:38:20;6.00;99.90
3334;DHT22;1679;50.392;8.008;2024-01-06T08:40:47;6.00;99.90
3334;DHT22;1679;50.392;8.008;2024-01-06T08:43:15;6.10;99.90
3334;DHT22;1679;50.392;8.008;2024-01-06T08:45:41;6.10;99.90
3334;DHT22;1679;50.392;8.008;2024-01-06T08:48:07;6.10;99.90
3334;DHT22;1679;50.392;8.008;2024-01-06T08:50:33;6.10;99.90
3334;DHT22;1679;50.392;8.008;2024-01-06T08:52:58;6.20;99.90
3334;DHT22;1679;50.392;8.008;2024-01-06T08:55:24;6.20;99.90
3334;DHT22;1679;50.392;8.008;2024-01-06T08:57:50;6.20;99.90
3334;DHT22;1679;50.392;8.008;2024-01-06T09:00:17;6.20;99.90
3334;DHT22;1679;50.392;8.008;2024-01-06T09:02:42;6.20;99.90
3334;DHT22;1679;50.392;8.008;2024-01-06T09:05:08;6.20;99.90
3334;DHT22;1679;50.392;8.008;2024-01-06T09:07:33;6.20;99.90
3334;DHT22;1679;50.392;8.008;2024-01-06T09:10:00;6.20;99.90
3334;DHT22;1679;50.392;8.008;2024-01-06T09:12:27;6.30;99.90
3334;DHT22;1679;50.392;8.008;2024-01-06T09:14:54;6.30;99.90
3334;DHT22;1679;50.392;8.008;2024-01-06T09:17:19;6.30;99.90
3334;DHT22;1679;50.392;8.008;2024-01-06T09:19:45;6.40;99.90
3334;DHT22;1679;50.392;8.008;2024-01-06T09:22:12;6.40;99.90
3334;DHT22;1679;50.392;8.008;2024-01-06T09:24:38;6.50;99.90
3334;DHT22;1679;50.392;8.008;2024-01-06T09:27:04;6.40;99.90
3334;DHT22;1679;50.392;8.008;2024-01-06T09:29:29;6.40;99.90
3334;DHT22;1679;50.392;8.008;2024-01-06T09:31:55;6.40;99.90
3334;DHT22;1679;50.392;8.008;2024-01-06T09:34:22;6.40;99.90
3334;DHT22;1679;50.392;8.008;2024-01-06T09:36:47;6.40;99.90
3334;DHT22;1679;50.392;8.008;2024-01-06T09:39:14;6.40;99.90
3334;DHT22;1679;50.392;8.008;2024-01-06T09:41:39;6.40;99.90
3334;DHT22;1679;50.392;8.008;2024-01-06T09:44:05;6.40;99.90
3334;DHT22;1679;50.392;8.008;2024-01-06T09:46:31;6.40;99.90
3334;DHT22;1679;50.392;8.008;2024-01-06T09:48:59;6.40;99.90
3334;DHT22;1679;50.392;8.008;2024-01-06T09:51:25;6.30;99.90
3334;DHT22;1679;50.392;8.008;2024-01-06T09:54:04;6.40;99.90
3334;DHT22;1679;50.392;8.008;2024-01-06T09:56:34;6.40;99.90
3334;DHT22;1679;50.392;8.008;2024-01-06T09:58:59;6.40;99.90
3334;DHT22;1679;50.392;8.008;2024-01-06T10:01:25;6.40;99.90
3334;DHT22;1679;50.392;8.008;2024-01-06T10:03:51;6.40;99.90
3334;DHT22;1679;50.392;8.008;2024-01-06T10:06:17;6.40;99.90
3334;DHT22;1679;50.392;8.008;2024-01-06T10:08:52;6.40;99.90
3334;DHT22;1679;50.392;8.008;2024-01-06T10:11:20;6.40;99.90
3334;DHT22;1679;50.392;8.008;2024-01-06T10:13:49;6.40;99.90
3334;DHT22;1679;50.392;8.008;2024-01-06T10:16:18;6.40;99.90
3334;DHT22;1679;50.392;8.008;2024-01-06T10:18:44;6.40;99.90
3334;DHT22;1679;50.392;8.008;2024-01-06T10:21:10;6.40;99.90
3334;DHT22;1679;50.392;8.008;2024-01-06T10:23:36;6.40;99.90
3334;DHT22;1679;50.392;8.008;2024-01-06T10:26:02;6.30;99.90
3334;DHT22;1679;50.392;8.008;2024-01-06T10:28:29;6.30;99.90
3334;DHT22;1679;50.392;8.008;2024-01-06T10:30:56;6.40;99.90
3334;DHT22;1679;50.392;8.008;2024-01-06T10:33:25;6.40;99.90
3334;DHT22;1679;50.392;8.008;2024-01-06T10:35:52;6.40;99.90
3334;DHT22;1679;50.392;8.008;2024-01-06T10:38:18;6.40;99.90
3334;DHT22;1679;50.392;8.008;2024-01-06T10:41:06;6.40;99.90
3334;DHT22;1679;50.392;8.008;2024-01-06T10:43:36;6.40;99.90
3334;DHT22;1679;50.392;8.008;2024-01-06T10:46:04;6.40;99.90
3334;DHT22;1679;50.392;8.008;2024-01-06T10:48:35;6.40;99.90
3334;DHT22;1679;50.392;8.008;2024-01-06T10:51:01;6.40;99.90
3334;DHT22;1679;50.392;8.008;2024-01-06T10:53:34;6.40;99.90
3334;DHT22;1679;50.392;8.008;2024-01-06T10:56:05;6.50;99.90
3334;DHT22;1679;50.392;8.008;2024-01-06T10:58:32;6.40;99.90
3334;DHT22;1679;50.392;8.008;2024-01-06T11:01:00;6.40;99.90
3334;DHT22;1679;50.392;8.008;2024-01-06T11:03:28;6.30;99.90
3334;DHT22;1679;50.392;8.008;2024-01-06T11:05:54;6.40;99.90
3334;DHT22;1679;50.392;8.008;2024-01-06T11:08:21;6.30;99.90
3334;DHT22;1679;50.392;8.008;2024-01-06T11:10:47;6.20;99.90
3334;DHT22;1679;50.392;8.008;2024-01-06T11:13:15;6.20;99.90
3334;DHT22;1679;50.392;8.008;2024-01-06T11:15:48;6.20;99.90
3334;DHT22;1679;50.392;8.008;2024-01-06T11:18:34;6.20;99.90
3334;DHT22;1679;50.392;8.008;2024-01-06T11:23:41;6.30;99.90
3334;DHT22;1679;50.392;8.008;2024-01-06T11:26:07;6.20;99.90
3334;DHT22;1679;50.392;8.008;2024-01-06T11:28:44;6.20;99.90
3334;DHT22;1679;50.392;8.008;2024-01-06T11:31:11;6.30;99.90
3334;DHT22;1679;50.392;8.008;2024-01-06T11:33:43;6.30;99.90
3334;DHT22;1679;50.392;8.008;2024-01-06T11:36:09;6.20;99.90
3334;DHT22;1679;50.392;8.008;2024-01-06T11:38:38;6.10;99.90
3334;DHT22;1679;50.392;8.008;2024-01-06T11:41:07;6.20;99.90
3334;DHT22;1679;50.392;8.008;2024-01-06T11:43:34;6.20;99.90
3334;DHT22;1679;50.392;8.008;2024-01-06T11:46:01;6.10;99.90
3334;DHT22;1679;50.392;8.008;2024-01-06T11:48:31;6.10;99.90
3334;DHT22;1679;50.392;8.008;2024-01-06T11:50:58;6.20;99.90
3334;DHT22;1679;50.392;8.008;2024-01-06T11:53:26;6.30;99.90
3334;DHT22;1679;50.392;8.008;2024-01-06T11:55:53;6.30;99.90
3334;DHT22;1679;50.392;8.008;2024-01-06T11:58:19;6.30;99.90
3334;DHT22;1679;50.392;8.008;2024-01-06T12:00:55;6.40;99.90
3334;DHT22;1679;50.392;8.008;2024-01-06T12:03:20;6.40;99.90
3334;DHT22;1679;50.392;8.008;2024-01-06T12:05:46;6.40;99.90
3334;DHT22;1679;50.392;8.008;2024-01-06T12:08:23;6.30;99.90
3334;DHT22;1679;50.392;8.008;2024-01-06T12:10:49;6.30;99.90
3334;DHT22;1679;50.392;8.008;2024-01-06T12:13:14;6.30;99.90
3334;DHT22;1679;50.392;8.008;2024-01-06T12:15:40;6.40;99.90
3334;DHT22;1679;50.392;8.008;2024-01-06T12:18:06;6.40;99.90
3334;DHT22;1679;50.392;8.008;2024-01-06T12:20:32;6.30;99.90
3334;DHT22;1679;50.392;8.008;2024-01-06T12:22:58;6.30;99.90
3334;DHT22;1679;50.392;8.008;2024-01-06T12:25:26;6.30;99.90
3334;DHT22;1679;50.392;8.008;2024-01-06T12:27:54;6.30;99.90
3334;DHT22;1679;50.392;8.008;2024-01-06T12:30:21;6.30;99.90
3334;DHT22;1679;50.392;8.008;2024-01-06T12:32:48;6.30;99.90
3334;DHT22;1679;50.392;8.008;2024-01-06T12:35:21;6.20;99.90
3334;DHT22;1679;50.392;8.008;2024-01-06T12:37:48;6.10;99.90
3334;DHT22;1679;50.392;8.008;2024-01-06T12:40:14;6.10;99.90
3334;DHT22;1679;50.392;8.008;2024-01-06T12:42:42;6.10;99.90
3334;DHT22;1679;50.392;8.008;2024-01-06T12:45:08;6.20;99.90
3334;DHT22;1679;50.392;8.008;2024-01-06T12:47:35;6.20;99.90
3334;DHT22;1679;50.392;8.008;2024-01-06T12:50:01;6.20;99.90
3334;DHT22;1679;50.392;8.008;2024-01-06T12:52:27;6.20;99.90
3334;DHT22;1679;50.392;8.008;2024-01-06T12:54:52;6.20;99.90
3334;DHT22;1679;50.392;8.008;2024-01-06T12:57:19;6.10;99.90
3334;DHT22;1679;50.392;8.008;2024-01-06T12:59:45;6.10;99.90
3334;DHT22;1679;50.392;8.008;2024-01-06T13:02:10;6.10;99.90
3334;DHT22;1679;50.392;8.008;2024-01-06T13:04:36;6.10;99.90
3334;DHT22;1679;50.392;8.008;2024-01-06T13:07:02;6.00;99.90
3334;DHT22;1679;50.392;8.008;2024-01-06T13:09:28;6.00;99.90
3334;DHT22;1679;50.392;8.008;2024-01-06T13:11:54;6.00;99.90
3334;DHT22;1679;50.392;8.008;2024-01-06T13:14:21;6.00;99.90
3334;DHT22;1679;50.392;8.008;2024-01-06T13:16:47;5.90;99.90
3334;DHT22;1679;50.392;8.008;2024-01-06T13:19:12;5.90;99.90
3334;DHT22;1679;50.392;8.008;2024-01-06T13:21:39;6.00;99.90
3334;DHT22;1679;50.392;8.008;2024-01-06T13:24:06;6.00;99.90
3334;DHT22;1679;50.392;8.008;2024-01-06T13:26:33;6.00;99.90
3334;DHT22;1679;50.392;8.008;2024-01-06T13:28:59;6.00;99.90
3334;DHT22;1679;50.392;8.008;2024-01-06T13:31:26;6.00;99.90
3334;DHT22;1679;50.392;8.008;2024-01-06T13:33:52;5.90;99.90
3334;DHT22;1679;50.392;8.008;2024-01-06T13:36:23;5.90;99.90
3334;DHT22;1679;50.392;8.008;2024-01-06T13:38:49;5.90;99.90
3334;DHT22;1679;50.392;8.008;2024-01-06T13:41:15;5.90;99.90
3334;DHT22;1679;50.392;8.008;2024-01-06T13:43:41;5.80;99.90
3334;DHT22;1679;50.392;8.008;2024-01-06T13:46:07;5.70;99.90
3334;DHT22;1679;50.392;8.008;2024-01-06T13:48:32;5.70;99.90
3334;DHT22;1679;50.392;8.008;2024-01-06T13:50:58;5.70;99.90
3334;DHT22;1679;50.392;8.008;2024-01-06T13:53:24;5.70;99.90
3334;DHT22;1679;50.392;8.008;2024-01-06T13:55:52;5.70;99.90
3334;DHT22;1679;50.392;8.008;2024-01-06T13:58:19;5.80;99.90
3334;DHT22;1679;50.392;8.008;2024-01-06T14:00:44;5.90;99.90
3334;DHT22;1679;50.392;8.008;2024-01-06T14:03:10;5.90;99.90
3334;DHT22;1679;50.392;8.008;2024-01-06T14:05:37;5.90;99.90
3334;DHT22;1679;50.392;8.008;2024-01-06T14:08:03;5.90;99.90
3334;DHT22;1679;50.392;8.008;2024-01-06T14:10:30;6.00;99.90
3334;DHT22;1679;50.392;8.008;2024-01-06T14:12:58;6.00;99.90
3334;DHT22;1679;50.392;8.008;2024-01-06T14:15:24;6.00;99.90
3334;DHT22;1679;50.392;8.008;2024-01-06T14:17:52;6.00;99.90
3334;DHT22;1679;50.392;8.008;2024-01-06T14:20:18;6.00;99.90
3334;DHT22;1679;50.392;8.008;2024-01-06T14:22:45;6.00;99.90
3334;DHT22;1679;50.392;8.008;2024-01-06T14:25:12;6.00;99.90
3334;DHT22;1679;50.392;8.008;2024-01-06T14:27:39;5.90;99.90
3334;DHT22;1679;50.392;8.008;2024-01-06T14:30:05;5.80;99.90
3334;DHT22;1679;50.392;8.008;2024-01-06T14:32:35;5.70;99.90
3334;DHT22;1679;50.392;8.008;2024-01-06T14:35:03;5.60;99.90
3334;DHT22;1679;50.392;8.008;2024-01-06T14:37:28;5.60;99.90
3334;DHT22;1679;50.392;8.008;2024-01-06T14:39:54;5.50;99.90
3334;DHT22;1679;50.392;8.008;2024-01-06T14:42:19;5.50;99.90
3334;DHT22;1679;50.392;8.008;2024-01-06T14:44:45;5.50;99.90
3334;DHT22;1679;50.392;8.008;2024-01-06T14:47:12;5.50;99.90
3334;DHT22;1679;50.392;8.008;2024-01-06T14:49:38;5.50;99.90
3334;DHT22;1679;50.392;8.008;2024-01-06T14:52:04;5.50;99.90
3334;DHT22;1679;50.392;8.008;2024-01-06T14:54:30;5.50;99.90
3334;DHT22;1679;50.392;8.008;2024-01-06T14:56:58;5.50;99.90
3334;DHT22;1679;50.392;8.008;2024-01-06T14:59:24;5.40;99.90
3334;DHT22;1679;50.392;8.008;2024-01-06T15:01:49;5.30;99.90
3334;DHT22;1679;50.392;8.008;2024-01-06T15:04:15;5.30;99.90
3334;DHT22;1679;50.392;8.008;2024-01-06T15:06:40;5.30;99.90
3334;DHT22;1679;50.392;8.008;2024-01-06T15:09:07;5.30;99.90
3334;DHT22;1679;50.392;8.008;2024-01-06T15:11:34;5.30;99.90
3334;DHT22;1679;50.392;8.008;2024-01-06T15:14:01;5.30;99.90
3334;DHT22;1679;50.392;8.008;2024-01-06T15:16:30;5.20;99.90
3334;DHT22;1679;50.392;8.008;2024-01-06T15:18:56;5.20;99.90
3334;DHT22;1679;50.392;8.008;2024-01-06T15:21:26;5.20;99.90
3334;DHT22;1679;50.392;8.008;2024-01-06T15:23:54;5.30;99.90
3334;DHT22;1679;50.392;8.008;2024-01-06T15:26:24;5.30;99.90
3334;DHT22;1679;50.392;8.008;2024-01-06T15:28:50;5.30;99.90
3334;DHT22;1679;50.392;8.008;2024-01-06T15:31:17;5.30;99.90
3334;DHT22;1679;50.392;8.008;2024-01-06T15:33:43;5.30;99.90
3334;DHT22;1679;50.392;8.008;2024-01-06T15:36:10;5.30;99.90
3334;DHT22;1679;50.392;8.008;2024-01-06T15:38:36;5.30;99.90
3334;DHT22;1679;50.392;8.008;2024-01-06T15:41:02;5.30;99.90
3334;DHT22;1679;50.392;8.008;2024-01-06T15:43:29;5.30;99.90
3334;DHT22;1679;50.392;8.008;2024-01-06T15:45:54;5.20;99.90
3334;DHT22;1679;50.392;8.008;2024-01-06T15:48:21;5.10;99.90
3334;DHT22;1679;50.392;8.008;2024-01-06T15:50:48;5.10;99.90
3334;DHT22;1679;50.392;8.008;2024-01-06T15:53:15;5.10;99.90
3334;DHT22;1679;50.392;8.008;2024-01-06T15:55:42;5.00;99.90
3334;DHT22;1679;50.392;8.008;2024-01-06T15:58:07;5.00;99.90
3334;DHT22;1679;50.392;8.008;2024-01-06T16:00:33;4.90;99.90
3334;DHT22;1679;50.392;8.008;2024-01-06T16:03:00;4.90;99.90
3334;DHT22;1679;50.392;8.008;2024-01-06T16:05:26;5.00;99.90
3334;DHT22;1679;50.392;8.008;2024-01-06T16:07:52;4.90;99.90
3334;DHT22;1679;50.392;8.008;2024-01-06T16:10:20;4.90;99.90
3334;DHT22;1679;50.392;8.008;2024-01-06T16:12:47;4.90;99.90
3334;DHT22;1679;50.392;8.008;2024-01-06T16:15:13;4.80;99.90